Time,TemperatureF,DewpointF,PressureIn,WindDirection,WindDirectionDegrees,WindSpeedMPH,WindSpeedGustMPH,Humidity,HourlyPrecipIn,Conditions,Clouds,dailyrainin,SoftwareType,DateUTC
2013-04-13 00:00:00,53.6,21.3,29.09,North,353,0.0,2.7,28,0.00,,,0.00,VWS V14.01,2013-04-13 04:00:00,
2013-04-13 00:05:00,53.6,21.3,29.09,NNE,12,2.2,4.9,28,0.00,,,0.00,VWS V14.01,2013-04-13 04:05:00,
2013-04-13 00:10:00,53.4,21.1,29.09,NNE,17,3.1,3.1,28,0.00,,,0.00,VWS V14.01,2013-04-13 04:10:00,
2013-04-13 00:15:00,53.4,21.1,29.09,NNE,13,0.0,0.0,28,0.00,,,0.00,VWS V14.01,2013-04-13 04:15:00,
2013-04-13 00:20:00,53.2,21.0,29.12,NE,54,0.0,2.2,28,0.00,,,0.00,VWS V14.01,2013-04-13 04:20:00,
2013-04-13 00:25:00,53.2,21.0,29.12,North,6,0.0,3.6,28,0.00,,,0.00,VWS V14.01,2013-04-13 04:25:00,
2013-04-13 00:30:00,53.1,20.8,29.12,NNE,18,0.0,0.0,28,0.00,,,0.00,VWS V14.01,2013-04-13 04:30:00,
2013-04-13 00:35:00,53.1,20.8,29.12,North,4,0.0,0.0,28,0.00,,,0.00,VWS V14.01,2013-04-13 04:35:00,
2013-04-13 00:40:00,52.9,20.7,29.12,North,353,0.0,0.0,28,0.00,,,0.00,VWS V14.01,2013-04-13 04:40:00,
2013-04-13 00:45:00,52.5,20.4,29.12,NNE,16,3.6,3.6,28,0.00,,,0.00,VWS V14.01,2013-04-13 04:45:00,
2013-04-13 00:50:00,52.7,20.5,29.12,NNW,343,0.0,0.0,28,0.00,,,0.00,VWS V14.01,2013-04-13 04:50:00,
2013-04-13 00:55:00,52.5,20.4,29.12,NNW,332,2.2,3.1,28,0.00,,,0.00,VWS V14.01,2013-04-13 04:55:00,
2013-04-13 01:00:00,52.3,20.2,29.12,NNW,334,0.0,2.2,28,0.00,,,0.00,VWS V14.01,2013-04-13 05:00:00,
2013-04-13 01:05:00,52.2,20.1,29.12,NE,45,2.2,2.7,28,0.00,,,0.00,VWS V14.01,2013-04-13 05:05:00,
2013-04-13 01:10:00,52.2,20.1,29.12,North,7,0.0,5.8,28,0.00,,,0.00,VWS V14.01,2013-04-13 05:10:00,
2013-04-13 01:15:00,52.0,19.9,29.12,North,0,4.0,4.0,28,0.00,,,0.00,VWS V14.01,2013-04-13 05:15:00,
2013-04-13 01:20:00,52.0,19.9,29.12,NNE,22,2.7,2.7,28,0.00,,,0.00,VWS V14.01,2013-04-13 05:20:00,
2013-04-13 01:25:00,52.0,19.9,29.12,West,281,0.0,2.7,28,0.00,,,0.00,VWS V14.01,2013-04-13 05:25:00,
2013-04-13 01:30:00,51.8,19.8,29.12,NNW,327,2.2,3.6,28,0.00,,,0.00,VWS V14.01,2013-04-13 05:30:00,
2013-04-13 01:35:00,51.8,19.8,29.12,NE,49,0.0,2.7,28,0.00,,,0.00,VWS V14.01,2013-04-13 05:35:00,
2013-04-13 01:40:00,51.6,19.6,29.12,North,353,2.2,3.1,28,0.00,,,0.00,VWS V14.01,2013-04-13 05:40:00,
2013-04-13 01:45:00,51.6,19.6,29.12,North,357,0.0,3.6,28,0.00,,,0.00,VWS V14.01,2013-04-13 05:45:00,
2013-04-13 01:50:00,51.6,19.6,29.12,North,353,0.0,0.0,28,0.00,,,0.00,VWS V14.01,2013-04-13 05:50:00,
2013-04-13 01:55:00,51.3,19.3,29.12,North,10,0.0,2.2,28,0.00,,,0.00,VWS V14.01,2013-04-13 05:55:00,
2013-04-13 02:00:00,51.3,19.3,29.12,North,357,0.0,0.0,28,0.00,,,0.00,VWS V14.01,2013-04-13 06:00:00,
2013-04-13 02:05:00,51.1,19.1,29.12,North,0,0.0,0.0,28,0.00,,,0.00,VWS V14.01,2013-04-13 06:05:00,
2013-04-13 02:10:00,51.1,19.1,29.12,North,0,0.0,0.0,28,0.00,,,0.00,VWS V14.01,2013-04-13 06:10:00,
2013-04-13 02:15:00,50.9,19.0,29.12,North,8,0.0,0.0,28,0.00,,,0.00,VWS V14.01,2013-04-13 06:15:00,
2013-04-13 02:20:00,50.7,19.6,29.12,North,2,0.0,0.0,29,0.00,,,0.00,VWS V14.01,2013-04-13 06:20:00,
2013-04-13 02:25:00,50.5,19.5,29.12,North,357,0.0,0.0,29,0.00,,,0.00,VWS V14.01,2013-04-13 06:25:00,
2013-04-13 02:30:00,50.5,19.5,29.12,North,0,0.0,0.0,29,0.00,,,0.00,VWS V14.01,2013-04-13 06:30:00,
2013-04-13 02:35:00,50.4,19.3,29.12,North,0,0.0,0.0,29,0.00,,,0.00,VWS V14.01,2013-04-13 06:35:00,
2013-04-13 02:40:00,50.4,19.3,29.12,North,0,0.0,0.0,29,0.00,,,0.00,VWS V14.01,2013-04-13 06:40:00,
2013-04-13 02:45:00,50.2,19.2,29.12,North,0,0.0,0.0,29,0.00,,,0.00,VWS V14.01,2013-04-13 06:45:00,
2013-04-13 02:51:00,50.2,19.2,29.12,North,0,0.0,0.0,29,0.00,,,0.00,VWS V14.01,2013-04-13 06:51:00,
2013-04-13 02:56:00,50.2,19.2,29.12,North,0,0.0,0.0,29,0.00,,,0.00,VWS V14.01,2013-04-13 06:56:00,
2013-04-13 03:01:00,50.2,19.2,29.12,North,0,0.0,0.0,29,0.00,,,0.00,VWS V14.01,2013-04-13 07:01:00,
2013-04-13 03:06:00,50.4,19.3,29.12,North,8,0.0,0.0,29,0.00,,,0.00,VWS V14.01,2013-04-13 07:06:00,
2013-04-13 03:11:00,50.5,19.5,29.12,North,353,0.0,0.0,29,0.00,,,0.00,VWS V14.01,2013-04-13 07:11:00,
2013-04-13 03:16:00,50.7,19.6,29.12,North,353,0.0,0.0,29,0.00,,,0.00,VWS V14.01,2013-04-13 07:16:00,
2013-04-13 03:21:00,50.7,19.6,29.12,North,0,0.0,0.0,29,0.00,,,0.00,VWS V14.01,2013-04-13 07:21:00,
2013-04-13 03:26:00,50.9,19.8,29.12,North,0,0.0,0.0,29,0.00,,,0.00,VWS V14.01,2013-04-13 07:26:00,
2013-04-13 03:32:00,50.9,19.8,29.12,North,0,0.0,0.0,29,0.00,,,0.00,VWS V14.01,2013-04-13 07:32:00,
2013-04-13 03:37:00,51.1,20.0,29.12,NW,325,3.1,3.1,29,0.00,,,0.00,VWS V14.01,2013-04-13 07:37:00,
2013-04-13 03:42:00,51.3,20.1,29.12,North,353,0.0,0.0,29,0.00,,,0.00,VWS V14.01,2013-04-13 07:42:00,
2013-04-13 03:47:00,51.4,19.4,29.12,NNW,345,0.0,0.0,28,0.00,,,0.00,VWS V14.01,2013-04-13 07:47:00,
2013-04-13 03:52:00,51.4,19.4,29.12,North,0,0.0,0.0,28,0.00,,,0.00,VWS V14.01,2013-04-13 07:52:00,
2013-04-13 03:57:00,51.8,19.8,29.12,NNW,341,0.0,0.0,28,0.00,,,0.00,VWS V14.01,2013-04-13 07:57:00,
2013-04-13 04:02:00,52.0,19.1,29.12,NNW,340,2.7,2.7,27,0.00,,,0.00,VWS V14.01,2013-04-13 08:02:00,
2013-04-13 04:07:00,52.2,19.2,29.12,NNW,335,2.7,3.1,27,0.00,,,0.00,VWS V14.01,2013-04-13 08:07:00,
2013-04-13 04:13:00,52.2,19.2,29.12,NNW,346,5.4,5.4,27,0.00,,,0.00,VWS V14.01,2013-04-13 08:13:00,
2013-04-13 04:18:00,52.3,19.4,29.15,NNW,330,0.0,0.0,27,0.00,,,0.00,VWS V14.01,2013-04-13 08:18:00,
2013-04-13 04:23:00,52.2,19.2,29.15,NNW,328,0.0,0.0,27,0.00,,,0.00,VWS V14.01,2013-04-13 08:23:00,
2013-04-13 04:28:00,52.5,19.5,29.15,North,353,0.0,5.4,27,0.00,,,0.00,VWS V14.01,2013-04-13 08:28:00,
2013-04-13 04:33:00,52.7,19.7,29.15,NNW,330,0.0,0.0,27,0.00,,,0.00,VWS V14.01,2013-04-13 08:33:00,
2013-04-13 04:38:00,52.9,19.8,29.15,North,357,0.0,0.0,27,0.00,,,0.00,VWS V14.01,2013-04-13 08:38:00,
2013-04-13 04:43:00,52.7,19.7,29.15,North,9,0.0,0.0,27,0.00,,,0.00,VWS V14.01,2013-04-13 08:43:00,
2013-04-13 04:48:00,52.5,19.5,29.15,North,0,0.0,2.7,27,0.00,,,0.00,VWS V14.01,2013-04-13 08:48:00,
2013-04-13 04:53:00,52.2,19.2,29.15,North,350,0.0,0.0,27,0.00,,,0.00,VWS V14.01,2013-04-13 08:53:00,
2013-04-13 04:58:00,52.0,19.1,29.15,North,353,0.0,0.0,27,0.00,,,0.00,VWS V14.01,2013-04-13 08:58:00,
2013-04-13 05:03:00,51.6,18.8,29.15,NNE,21,0.0,0.0,27,0.00,,,0.00,VWS V14.01,2013-04-13 09:03:00,
2013-04-13 05:08:00,51.8,18.9,29.15,North,357,0.0,0.0,27,0.00,,,0.00,VWS V14.01,2013-04-13 09:08:00,
2013-04-13 05:13:00,51.6,18.8,29.15,North,2,0.0,0.0,27,0.00,,,0.00,VWS V14.01,2013-04-13 09:13:00,
2013-04-13 05:18:00,51.4,18.6,29.15,North,0,0.0,0.0,27,0.00,,,0.00,VWS V14.01,2013-04-13 09:18:00,
2013-04-13 05:23:00,51.6,18.8,29.15,NW,315,0.0,0.0,27,0.00,,,0.00,VWS V14.01,2013-04-13 09:23:00,
2013-04-13 05:28:00,51.6,18.8,29.15,NNE,16,0.0,0.0,27,0.00,,,0.00,VWS V14.01,2013-04-13 09:28:00,
2013-04-13 05:34:00,51.3,18.4,29.15,NNE,16,0.0,0.0,27,0.00,,,0.00,VWS V14.01,2013-04-13 09:34:00,
2013-04-13 05:39:00,51.1,18.3,29.15,NNE,16,0.0,0.0,27,0.00,,,0.00,VWS V14.01,2013-04-13 09:39:00,
2013-04-13 05:44:00,50.9,18.1,29.15,NNE,16,0.0,0.0,27,0.00,,,0.00,VWS V14.01,2013-04-13 09:44:00,
2013-04-13 05:49:00,50.7,18.0,29.15,NNE,16,0.0,0.0,27,0.00,,,0.00,VWS V14.01,2013-04-13 09:49:00,
2013-04-13 05:54:00,50.5,17.8,29.15,NNE,16,0.0,0.0,27,0.00,,,0.00,VWS V14.01,2013-04-13 09:54:00,
2013-04-13 05:59:00,50.5,17.8,29.15,NNE,16,0.0,0.0,27,0.00,,,0.00,VWS V14.01,2013-04-13 09:59:00,
2013-04-13 06:04:00,50.4,18.5,29.15,NNE,16,0.0,0.0,28,0.00,,,0.00,VWS V14.01,2013-04-13 10:04:00,
2013-04-13 06:09:00,50.4,18.5,29.15,NNE,16,0.0,0.0,28,0.00,,,0.00,VWS V14.01,2013-04-13 10:09:00,
2013-04-13 06:14:00,50.2,18.4,29.15,NNE,16,0.0,0.0,28,0.00,,,0.00,VWS V14.01,2013-04-13 10:14:00,
2013-04-13 06:19:00,50.0,18.2,29.18,NNE,16,0.0,0.0,28,0.00,,,0.00,VWS V14.01,2013-04-13 10:19:00,
2013-04-13 06:24:00,50.0,18.2,29.18,NNE,16,0.0,0.0,28,0.00,,,0.00,VWS V14.01,2013-04-13 10:24:00,
2013-04-13 06:29:00,49.8,18.0,29.18,NNE,16,0.0,0.0,28,0.00,,,0.00,VWS V14.01,2013-04-13 10:29:00,
2013-04-13 06:34:00,50.0,18.2,29.18,NNE,16,0.0,0.0,28,0.00,,,0.00,VWS V14.01,2013-04-13 10:34:00,
2013-04-13 06:39:00,49.8,18.9,29.18,North,0,0.0,0.0,29,0.00,,,0.00,VWS V14.01,2013-04-13 10:39:00,
2013-04-13 06:44:00,49.6,18.7,29.18,North,0,0.0,0.0,29,0.00,,,0.00,VWS V14.01,2013-04-13 10:44:00,
2013-04-13 06:49:00,49.6,19.5,29.18,North,357,0.0,0.0,30,0.00,,,0.00,VWS V14.01,2013-04-13 10:49:00,
2013-04-13 06:54:00,49.6,19.5,29.18,North,357,0.0,0.0,30,0.00,,,0.00,VWS V14.01,2013-04-13 10:54:00,
2013-04-13 06:59:00,49.8,19.6,29.18,North,353,0.0,0.0,30,0.00,,,0.00,VWS V14.01,2013-04-13 10:59:00,
2013-04-13 07:04:00,50.0,19.8,29.18,North,0,0.0,0.0,30,0.00,,,0.00,VWS V14.01,2013-04-13 11:04:00,
2013-04-13 07:09:00,50.2,20.0,29.18,North,0,0.0,0.0,30,0.00,,,0.00,VWS V14.01,2013-04-13 11:09:00,
2013-04-13 07:14:00,50.2,20.0,29.18,North,353,0.0,0.0,30,0.00,,,0.00,VWS V14.01,2013-04-13 11:14:00,
2013-04-13 07:20:00,50.4,19.3,29.18,NW,323,0.0,0.0,29,0.00,,,0.00,VWS V14.01,2013-04-13 11:20:00,
2013-04-13 07:25:00,50.5,19.5,29.18,NNW,345,0.0,3.6,29,0.00,,,0.00,VWS V14.01,2013-04-13 11:25:00,
2013-04-13 07:30:00,50.7,19.6,29.18,North,353,0.0,0.0,29,0.00,,,0.00,VWS V14.01,2013-04-13 11:30:00,
2013-04-13 07:35:00,50.9,19.0,29.21,North,357,0.0,0.0,28,0.00,,,0.00,VWS V14.01,2013-04-13 11:35:00,
2013-04-13 07:40:00,50.9,19.0,29.21,NNE,22,0.0,2.2,28,0.00,,,0.00,VWS V14.01,2013-04-13 11:40:00,
2013-04-13 07:45:00,50.9,18.1,29.21,NNE,23,0.0,0.0,27,0.00,,,0.00,VWS V14.01,2013-04-13 11:45:00,
2013-04-13 07:50:00,51.1,18.3,29.21,NNE,14,0.0,0.0,27,0.00,,,0.00,VWS V14.01,2013-04-13 11:50:00,
2013-04-13 07:55:00,51.3,18.4,29.21,North,5,2.7,3.6,27,0.00,,,0.00,VWS V14.01,2013-04-13 11:55:00,
2013-04-13 08:00:00,51.3,18.4,29.21,East,87,0.0,2.2,27,0.00,,,0.00,VWS V14.01,2013-04-13 12:00:00,
2013-04-13 08:05:00,51.3,18.4,29.21,ENE,69,0.0,2.2,27,0.00,,,0.00,VWS V14.01,2013-04-13 12:05:00,
2013-04-13 08:10:00,51.3,18.4,29.21,NNW,343,2.7,3.1,27,0.00,,,0.00,VWS V14.01,2013-04-13 12:10:00,
2013-04-13 08:16:00,51.4,18.6,29.21,North,9,0.0,0.0,27,0.00,,,0.00,VWS V14.01,2013-04-13 12:16:00,
2013-04-13 08:21:00,51.4,18.6,29.23,North,353,2.7,2.7,27,0.00,,,0.00,VWS V14.01,2013-04-13 12:21:00,
2013-04-13 08:26:00,51.6,18.8,29.23,North,9,5.4,6.7,27,0.00,,,0.00,VWS V14.01,2013-04-13 12:26:00,
2013-04-13 08:31:00,51.6,18.8,29.23,NE,44,0.0,0.0,27,0.00,,,0.00,VWS V14.01,2013-04-13 12:31:00,
2013-04-13 08:37:00,51.6,18.8,29.23,NE,38,2.2,4.0,27,0.00,,,0.00,VWS V14.01,2013-04-13 12:37:00,
2013-04-13 08:42:00,51.8,18.9,29.23,ENE,63,2.2,2.7,27,0.00,,,0.00,VWS V14.01,2013-04-13 12:42:00,
2013-04-13 08:47:00,51.8,18.9,29.23,NE,46,0.0,0.0,27,0.00,,,0.00,VWS V14.01,2013-04-13 12:47:00,
2013-04-13 08:52:00,52.0,19.1,29.23,NNW,338,0.0,0.0,27,0.00,,,0.00,VWS V14.01,2013-04-13 12:52:00,
2013-04-13 08:57:00,52.2,19.2,29.23,NE,35,0.0,3.1,27,0.00,,,0.00,VWS V14.01,2013-04-13 12:57:00,
2013-04-13 09:02:00,52.0,19.1,29.23,North,10,0.0,2.2,27,0.00,,,0.00,VWS V14.01,2013-04-13 13:02:00,
2013-04-13 09:07:00,52.3,19.4,29.23,NNE,25,0.0,3.6,27,0.00,,,0.00,VWS V14.01,2013-04-13 13:07:00,
2013-04-13 09:13:00,52.5,19.5,29.23,SSW,205,0.0,2.2,27,0.00,,,0.00,VWS V14.01,2013-04-13 13:13:00,
2013-04-13 09:18:00,52.9,19.8,29.23,NNE,15,0.0,0.0,27,0.00,,,0.00,VWS V14.01,2013-04-13 13:18:00,
2013-04-13 09:23:00,53.1,20.0,29.23,NW,318,0.0,2.2,27,0.00,,,0.00,VWS V14.01,2013-04-13 13:23:00,
2013-04-13 09:28:00,53.2,20.1,29.23,NE,35,0.0,0.0,27,0.00,,,0.00,VWS V14.01,2013-04-13 13:28:00,
2013-04-13 09:33:00,53.4,20.3,29.23,NNW,341,0.0,3.6,27,0.00,,,0.00,VWS V14.01,2013-04-13 13:33:00,
2013-04-13 09:38:00,53.8,19.7,29.23,North,353,0.0,0.0,26,0.00,,,0.00,VWS V14.01,2013-04-13 13:38:00,
2013-04-13 09:43:00,53.8,19.7,29.23,ENE,58,3.1,3.1,26,0.00,,,0.00,VWS V14.01,2013-04-13 13:43:00,
2013-04-13 09:48:00,53.6,19.6,29.23,North,353,2.2,2.7,26,0.00,,,0.00,VWS V14.01,2013-04-13 13:48:00,
2013-04-13 09:53:00,53.6,19.6,29.23,NW,324,4.0,6.7,26,0.00,,,0.00,VWS V14.01,2013-04-13 13:53:00,
2013-04-13 09:58:00,53.6,19.6,29.23,NNW,334,10.5,15.0,26,0.00,,,0.00,VWS V14.01,2013-04-13 13:58:00,
2013-04-13 10:03:00,54.5,20.3,29.23,NNW,341,3.1,4.0,26,0.00,,,0.00,VWS V14.01,2013-04-13 14:03:00,
2013-04-13 10:08:00,55.2,21.0,29.23,West,276,5.4,5.4,26,0.00,,,0.00,VWS V14.01,2013-04-13 14:08:00,
2013-04-13 10:13:00,56.1,20.8,29.23,NW,311,5.8,5.8,25,0.00,,,0.00,VWS V14.01,2013-04-13 14:13:00,
2013-04-13 10:19:00,55.9,20.6,29.23,NNW,346,4.0,4.0,25,0.00,,,0.00,VWS V14.01,2013-04-13 14:19:00,
2013-04-13 10:24:00,56.1,20.8,29.23,North,353,2.7,2.7,25,0.00,,,0.00,VWS V14.01,2013-04-13 14:24:00,
2013-04-13 10:29:00,56.7,21.3,29.23,North,0,5.4,6.3,25,0.00,,,0.00,VWS V14.01,2013-04-13 14:29:00,
2013-04-13 10:34:00,57.2,18.7,29.23,North,357,0.0,2.2,22,0.00,,,0.00,VWS V14.01,2013-04-13 14:34:00,
2013-04-13 10:39:00,57.6,19.0,29.23,NNE,15,0.0,0.0,22,0.00,,,0.00,VWS V14.01,2013-04-13 14:39:00,
2013-04-13 10:44:00,57.4,18.9,29.23,NW,314,8.7,8.7,22,0.00,,,0.00,VWS V14.01,2013-04-13 14:44:00,
2013-04-13 10:49:00,58.1,19.5,29.23,NW,325,10.1,10.1,22,0.00,,,0.00,VWS V14.01,2013-04-13 14:49:00,
2013-04-13 10:54:00,58.5,19.8,29.23,NNW,335,4.0,7.6,22,0.00,,,0.00,VWS V14.01,2013-04-13 14:54:00,
2013-04-13 10:59:00,58.8,20.1,29.23,NNW,345,3.1,4.0,22,0.00,,,0.00,VWS V14.01,2013-04-13 14:59:00,
2013-04-13 11:04:00,59.5,22.7,29.23,NNW,330,3.6,8.3,24,0.00,,,0.00,VWS V14.01,2013-04-13 15:04:00,
2013-04-13 11:09:00,59.7,20.8,29.23,North,353,4.0,11.0,22,0.00,,,0.00,VWS V14.01,2013-04-13 15:09:00,
2013-04-13 11:14:00,59.5,20.7,29.23,West,272,4.9,5.8,22,0.00,,,0.00,VWS V14.01,2013-04-13 15:14:00,
2013-04-13 11:19:00,59.4,20.5,29.23,NNW,332,7.2,7.2,22,0.00,,,0.00,VWS V14.01,2013-04-13 15:19:00,
2013-04-13 11:24:00,59.0,20.2,29.23,SSW,205,5.4,6.3,22,0.00,,,0.00,VWS V14.01,2013-04-13 15:24:00,
2013-04-13 11:29:00,58.5,19.8,29.23,NE,34,4.0,5.8,22,0.00,,,0.00,VWS V14.01,2013-04-13 15:29:00,
2013-04-13 11:34:00,59.4,20.5,29.23,NNW,330,5.4,5.4,22,0.00,,,0.00,VWS V14.01,2013-04-13 15:34:00,
2013-04-13 11:39:00,59.7,20.8,29.23,North,0,3.1,9.6,22,0.00,,,0.00,VWS V14.01,2013-04-13 15:39:00,
2013-04-13 11:44:00,59.4,20.5,29.23,North,353,0.0,5.8,22,0.00,,,0.00,VWS V14.01,2013-04-13 15:44:00,
2013-04-13 11:49:00,60.1,23.2,29.23,NE,52,4.0,4.0,24,0.00,,,0.00,VWS V14.01,2013-04-13 15:49:00,
2013-04-13 11:54:00,60.3,21.3,29.23,North,3,4.0,12.8,22,0.00,,,0.00,VWS V14.01,2013-04-13 15:54:00,
2013-04-13 11:59:00,60.1,21.1,29.23,West,280,2.7,5.4,22,0.00,,,0.00,VWS V14.01,2013-04-13 15:59:00,
2013-04-13 12:04:00,59.9,21.0,29.23,NW,321,8.7,10.1,22,0.00,,,0.00,VWS V14.01,2013-04-13 16:04:00,
2013-04-13 12:09:00,59.5,20.7,29.23,SSE,156,2.7,6.3,22,0.00,,,0.00,VWS V14.01,2013-04-13 16:09:00,
2013-04-13 12:14:00,60.3,21.3,29.23,WNW,298,5.4,8.1,22,0.00,,,0.00,VWS V14.01,2013-04-13 16:14:00,
2013-04-13 12:19:00,60.1,21.1,29.21,ENE,75,3.1,8.3,22,0.00,,,0.00,VWS V14.01,2013-04-13 16:19:00,
2013-04-13 12:24:00,60.4,21.4,29.21,North,353,2.7,6.3,22,0.00,,,0.00,VWS V14.01,2013-04-13 16:24:00,
2013-04-13 12:29:00,59.9,21.0,29.21,NW,320,3.1,4.0,22,0.00,,,0.00,VWS V14.01,2013-04-13 16:29:00,
2013-04-13 12:34:00,59.7,20.8,29.21,NNW,333,3.6,9.6,22,0.00,,,0.00,VWS V14.01,2013-04-13 16:34:00,
2013-04-13 12:39:00,59.7,20.8,29.21,NNW,344,3.6,5.8,22,0.00,,,0.00,VWS V14.01,2013-04-13 16:39:00,
2013-04-13 12:44:00,59.9,21.0,29.21,NE,45,0.0,3.6,22,0.00,,,0.00,VWS V14.01,2013-04-13 16:44:00,
2013-04-13 12:49:00,59.4,20.5,29.21,East,81,2.7,5.8,22,0.00,,,0.00,VWS V14.01,2013-04-13 16:49:00,
2013-04-13 12:54:00,59.7,20.8,29.21,East,83,2.7,7.2,22,0.00,,,0.00,VWS V14.01,2013-04-13 16:54:00,
2013-04-13 12:59:00,60.3,21.3,29.21,North,353,8.1,8.1,22,0.00,,,0.00,VWS V14.01,2013-04-13 16:59:00,
2013-04-13 13:04:00,60.1,21.1,29.21,East,82,0.0,4.0,22,0.00,,,0.00,VWS V14.01,2013-04-13 17:04:00,
2013-04-13 13:09:00,60.3,21.3,29.21,SW,216,4.0,8.1,22,0.00,,,0.00,VWS V14.01,2013-04-13 17:09:00,
2013-04-13 13:14:00,60.6,21.6,29.21,SE,129,6.3,6.3,22,0.00,,,0.00,VWS V14.01,2013-04-13 17:14:00,
2013-04-13 13:19:00,61.0,20.8,29.21,NNE,21,3.1,3.6,21,0.00,,,0.00,VWS V14.01,2013-04-13 17:19:00,
2013-04-13 13:24:00,61.3,21.1,29.21,ESE,120,2.7,4.0,21,0.00,,,0.00,VWS V14.01,2013-04-13 17:24:00,
2013-04-13 13:29:00,61.9,24.7,29.21,ESE,115,3.6,3.6,24,0.00,,,0.00,VWS V14.01,2013-04-13 17:29:00,
2013-04-13 13:34:00,62.2,25.0,29.18,ESE,121,2.7,2.7,24,0.00,,,0.00,VWS V14.01,2013-04-13 17:34:00,
2013-04-13 13:39:00,62.2,21.9,29.18,South,176,2.7,3.1,21,0.00,,,0.00,VWS V14.01,2013-04-13 17:39:00,
2013-04-13 13:44:00,62.2,21.9,29.18,East,81,2.7,4.0,21,0.00,,,0.00,VWS V14.01,2013-04-13 17:44:00,
2013-04-13 13:49:00,61.7,21.4,29.18,SE,129,0.0,3.1,21,0.00,,,0.00,VWS V14.01,2013-04-13 17:49:00,
2013-04-13 13:54:00,61.7,21.4,29.18,WNW,293,0.0,0.0,21,0.00,,,0.00,VWS V14.01,2013-04-13 17:54:00,
2013-04-13 13:59:00,61.9,21.5,29.18,West,278,2.7,2.7,21,0.00,,,0.00,VWS V14.01,2013-04-13 17:59:00,
2013-04-13 14:04:00,62.4,22.0,29.18,East,95,2.7,3.1,21,0.00,,,0.00,VWS V14.01,2013-04-13 18:04:00,
2013-04-13 14:09:00,62.2,21.9,29.18,NNW,334,2.2,4.9,21,0.00,,,0.00,VWS V14.01,2013-04-13 18:09:00,
2013-04-13 14:14:00,61.9,21.5,29.18,WNW,303,0.0,0.0,21,0.00,,,0.00,VWS V14.01,2013-04-13 18:14:00,
2013-04-13 14:20:00,61.7,21.4,29.18,WSW,253,0.0,0.0,21,0.00,,,0.00,VWS V14.01,2013-04-13 18:20:00,
2013-04-13 14:24:00,61.9,21.5,29.18,West,261,3.6,3.6,21,0.00,,,0.00,VWS V14.01,2013-04-13 18:24:00,
2013-04-13 14:27:00,62.2,21.9,29.18,North,0,3.6,5.4,21,0.00,,,0.00,VWS V14.01,2013-04-13 18:27:00,
2013-04-13 14:32:00,62.8,22.3,29.18,WNW,294,2.7,2.7,21,0.00,,,0.00,VWS V14.01,2013-04-13 18:32:00,
2013-04-13 14:37:00,63.0,22.5,29.18,SSE,162,5.4,5.4,21,0.00,,,0.00,VWS V14.01,2013-04-13 18:37:00,
2013-04-13 14:42:00,63.5,22.9,29.18,East,91,3.6,4.0,21,0.00,,,0.00,VWS V14.01,2013-04-13 18:42:00,
2013-04-13 14:47:00,63.5,22.9,29.15,ENE,77,0.0,0.0,21,0.00,,,0.00,VWS V14.01,2013-04-13 18:47:00,
2013-04-13 14:52:00,63.5,22.9,29.15,East,89,0.0,0.0,21,0.00,,,0.00,VWS V14.01,2013-04-13 18:52:00,
2013-04-13 14:57:00,63.3,22.8,29.15,North,357,0.0,4.0,21,0.00,,,0.00,VWS V14.01,2013-04-13 18:57:00,
2013-04-13 15:02:00,63.9,23.2,29.15,NNW,337,3.6,4.9,21,0.00,,,0.00,VWS V14.01,2013-04-13 19:02:00,
2013-04-13 15:07:00,64.0,23.3,29.15,East,87,4.0,4.0,21,0.00,,,0.00,VWS V14.01,2013-04-13 19:07:00,
2013-04-13 15:12:00,64.4,22.5,29.15,NNE,27,0.0,0.0,20,0.00,,,0.00,VWS V14.01,2013-04-13 19:12:00,
2013-04-13 15:17:00,64.6,22.6,29.15,WNW,283,3.6,4.0,20,0.00,,,0.00,VWS V14.01,2013-04-13 19:17:00,
2013-04-13 15:22:00,64.9,22.9,29.15,East,80,3.1,4.5,20,0.00,,,0.00,VWS V14.01,2013-04-13 19:22:00,
2013-04-13 15:27:00,64.9,20.4,29.15,SE,124,2.7,3.1,18,0.00,,,0.00,VWS V14.01,2013-04-13 19:27:00,
2013-04-13 15:32:00,65.1,23.1,29.15,SE,132,3.1,5.8,20,0.00,,,0.00,VWS V14.01,2013-04-13 19:32:00,
2013-04-13 15:37:00,65.3,23.2,29.15,NNW,343,3.6,3.6,20,0.00,,,0.00,VWS V14.01,2013-04-13 19:37:00,
2013-04-13 15:42:00,65.3,20.7,29.15,ESE,109,0.0,4.0,18,0.00,,,0.00,VWS V14.01,2013-04-13 19:42:00,
2013-04-13 15:47:00,65.3,20.7,29.15,WNW,287,0.0,0.0,18,0.00,,,0.00,VWS V14.01,2013-04-13 19:47:00,
2013-04-13 15:52:00,65.5,20.9,29.15,WNW,292,0.0,3.6,18,0.00,,,0.00,VWS V14.01,2013-04-13 19:52:00,
2013-04-13 15:57:00,65.8,21.2,29.15,ENE,67,3.1,3.6,18,0.00,,,0.00,VWS V14.01,2013-04-13 19:57:00,
2013-04-13 16:02:00,65.8,21.2,29.12,ESE,116,0.0,3.6,18,0.00,,,0.00,VWS V14.01,2013-04-13 20:02:00,
2013-04-13 16:07:00,65.8,21.2,29.12,NNE,18,0.0,0.0,18,0.00,,,0.00,VWS V14.01,2013-04-13 20:07:00,
2013-04-13 16:13:00,66.0,21.3,29.12,NNW,342,2.7,5.4,18,0.00,,,0.00,VWS V14.01,2013-04-13 20:13:00,
2013-04-13 16:18:00,66.2,20.1,29.15,East,95,3.6,4.0,17,0.00,,,0.00,VWS V14.01,2013-04-13 20:18:00,
2013-04-13 16:23:00,66.4,20.3,29.15,ESE,110,2.7,3.1,17,0.00,,,0.00,VWS V14.01,2013-04-13 20:23:00,
2013-04-13 16:28:00,66.6,20.4,29.15,ESE,117,3.6,3.6,17,0.00,,,0.00,VWS V14.01,2013-04-13 20:28:00,
2013-04-13 16:33:00,66.7,20.6,29.12,SE,142,3.6,4.0,17,0.00,,,0.00,VWS V14.01,2013-04-13 20:33:00,
2013-04-13 16:38:00,66.7,20.6,29.12,WNW,295,3.1,3.1,17,0.00,,,0.00,VWS V14.01,2013-04-13 20:38:00,
2013-04-13 16:43:00,66.9,20.7,29.12,East,84,0.0,3.6,17,0.00,,,0.00,VWS V14.01,2013-04-13 20:43:00,
2013-04-13 16:48:00,66.9,20.7,29.12,NNW,330,0.0,0.0,17,0.00,,,0.00,VWS V14.01,2013-04-13 20:48:00,
2013-04-13 16:53:00,66.9,20.7,29.12,ESE,108,0.0,0.0,17,0.00,,,0.00,VWS V14.01,2013-04-13 20:53:00,
2013-04-13 16:58:00,67.1,20.9,29.12,East,99,0.0,0.0,17,0.00,,,0.00,VWS V14.01,2013-04-13 20:58:00,
2013-04-13 17:03:00,67.1,20.9,29.12,NE,52,0.0,2.2,17,0.00,,,0.00,VWS V14.01,2013-04-13 21:03:00,
2013-04-13 17:08:00,67.1,20.9,29.12,NNW,340,2.7,2.7,17,0.00,,,0.00,VWS V14.01,2013-04-13 21:08:00,
2013-04-13 17:13:00,67.3,21.0,29.12,East,86,3.6,3.6,17,0.00,,,0.00,VWS V14.01,2013-04-13 21:13:00,
2013-04-13 17:18:00,67.3,21.0,29.12,NNW,341,4.0,4.0,17,0.00,,,0.00,VWS V14.01,2013-04-13 21:18:00,
2013-04-13 17:23:00,67.5,18.2,29.12,ENE,70,3.1,7.6,15,0.00,,,0.00,VWS V14.01,2013-04-13 21:23:00,
2013-04-13 17:28:00,67.6,18.4,29.12,NNW,337,8.1,8.1,15,0.00,,,0.00,VWS V14.01,2013-04-13 21:28:00,
2013-04-13 17:33:00,68.0,18.7,29.12,North,357,4.0,8.1,15,0.00,,,0.00,VWS V14.01,2013-04-13 21:33:00,
2013-04-13 17:38:00,68.0,18.7,29.12,NNW,345,5.8,5.8,15,0.00,,,0.00,VWS V14.01,2013-04-13 21:38:00,
2013-04-13 17:43:00,68.0,18.7,29.12,WNW,300,4.9,5.8,15,0.00,,,0.00,VWS V14.01,2013-04-13 21:43:00,
2013-04-13 17:48:00,68.0,18.7,29.12,North,6,5.4,6.3,15,0.00,,,0.00,VWS V14.01,2013-04-13 21:48:00,
2013-04-13 17:53:00,68.2,18.8,29.12,WSW,253,8.7,8.7,15,0.00,,,0.00,VWS V14.01,2013-04-13 21:53:00,
2013-04-13 17:58:00,68.2,18.8,29.12,WNW,294,3.6,7.6,15,0.00,,,0.00,VWS V14.01,2013-04-13 21:58:00,
2013-04-13 18:03:00,68.2,18.8,29.12,East,101,8.3,12.8,15,0.00,,,0.00,VWS V14.01,2013-04-13 22:03:00,
2013-04-13 18:08:00,68.0,18.7,29.12,NNE,14,6.3,11.0,15,0.00,,,0.00,VWS V14.01,2013-04-13 22:08:00,
2013-04-13 18:13:00,68.0,18.7,29.12,NW,321,8.3,10.1,15,0.00,,,0.00,VWS V14.01,2013-04-13 22:13:00,
2013-04-13 18:18:00,67.8,18.5,29.15,NNW,333,4.0,4.0,15,0.00,,,0.00,VWS V14.01,2013-04-13 22:18:00,
2013-04-13 18:23:00,67.6,18.4,29.15,NW,307,5.8,6.3,15,0.00,,,0.00,VWS V14.01,2013-04-13 22:23:00,
2013-04-13 18:28:00,67.5,18.2,29.15,East,100,4.0,4.9,15,0.00,,,0.00,VWS V14.01,2013-04-13 22:28:00,
2013-04-13 18:33:00,67.3,18.1,29.15,NNW,346,4.0,4.0,15,0.00,,,0.00,VWS V14.01,2013-04-13 22:33:00,
2013-04-13 18:38:00,67.1,17.9,29.15,North,357,7.6,8.7,15,0.00,,,0.00,VWS V14.01,2013-04-13 22:38:00,
2013-04-13 18:43:00,66.9,17.8,29.15,NNW,342,8.3,8.3,15,0.00,,,0.00,VWS V14.01,2013-04-13 22:43:00,
2013-04-13 18:48:00,66.7,17.6,29.15,West,273,4.0,8.1,15,0.00,,,0.00,VWS V14.01,2013-04-13 22:48:00,
2013-04-13 18:53:00,66.6,17.5,29.15,WNW,289,3.1,3.1,15,0.00,,,0.00,VWS V14.01,2013-04-13 22:53:00,
2013-04-13 18:58:00,66.4,17.4,29.15,NNW,333,4.0,8.7,15,0.00,,,0.00,VWS V14.01,2013-04-13 22:58:00,
2013-04-13 19:03:00,66.2,17.2,29.15,NW,321,6.3,6.3,15,0.00,,,0.00,VWS V14.01,2013-04-13 23:03:00,
2013-04-13 19:08:00,66.0,17.1,29.15,North,350,6.3,8.1,15,0.00,,,0.00,VWS V14.01,2013-04-13 23:08:00,
2013-04-13 19:13:00,65.8,16.9,29.15,NNW,333,4.0,5.4,15,0.00,,,0.00,VWS V14.01,2013-04-13 23:13:00,
2013-04-13 19:18:00,65.7,16.8,29.15,North,353,5.4,5.4,15,0.00,,,0.00,VWS V14.01,2013-04-13 23:18:00,
2013-04-13 19:23:00,65.3,16.5,29.15,North,0,4.9,6.3,15,0.00,,,0.00,VWS V14.01,2013-04-13 23:23:00,
2013-04-13 19:28:00,65.1,16.4,29.15,NNW,342,4.0,4.0,15,0.00,,,0.00,VWS V14.01,2013-04-13 23:28:00,
2013-04-13 19:33:00,64.6,15.9,29.15,NW,323,4.0,6.3,15,0.00,,,0.00,VWS V14.01,2013-04-13 23:33:00,
2013-04-13 19:38:00,64.2,17.1,29.15,NW,316,3.1,8.1,16,0.00,,,0.00,VWS V14.01,2013-04-13 23:38:00,
2013-04-13 19:43:00,63.9,16.8,29.15,North,353,2.2,5.8,16,0.00,,,0.00,VWS V14.01,2013-04-13 23:43:00,
2013-04-13 19:48:00,63.5,16.5,29.18,NW,309,3.1,4.0,16,0.00,,,0.00,VWS V14.01,2013-04-13 23:48:00,
2013-04-13 19:53:00,63.1,16.2,29.18,NW,317,2.7,2.7,16,0.00,,,0.00,VWS V14.01,2013-04-13 23:53:00,
2013-04-13 19:58:00,63.0,16.1,29.18,North,353,0.0,5.4,16,0.00,,,0.00,VWS V14.01,2013-04-13 23:58:00,
2013-04-13 20:03:00,63.0,16.1,29.18,NNW,336,3.1,5.8,16,0.00,,,0.00,VWS V14.01,2013-04-14 00:03:00,
2013-04-13 20:08:00,62.6,15.8,29.18,NNW,334,2.7,4.0,16,0.00,,,0.00,VWS V14.01,2013-04-14 00:08:00,
2013-04-13 20:13:00,62.2,15.5,29.18,NW,321,0.0,0.0,16,0.00,,,0.00,VWS V14.01,2013-04-14 00:13:00,
2013-04-13 20:18:00,61.9,15.2,29.18,NNW,329,2.7,4.9,16,0.00,,,0.00,VWS V14.01,2013-04-14 00:18:00,
2013-04-13 20:23:00,61.5,14.9,29.18,NNW,337,3.1,3.1,16,0.00,,,0.00,VWS V14.01,2013-04-14 00:23:00,
2013-04-13 20:28:00,61.3,14.8,29.18,NNW,331,2.7,4.0,16,0.00,,,0.00,VWS V14.01,2013-04-14 00:28:00,
2013-04-13 20:33:00,61.2,14.6,29.18,NNW,327,2.7,4.0,16,0.00,,,0.00,VWS V14.01,2013-04-14 00:33:00,
2013-04-13 20:38:00,61.2,14.6,29.18,NNW,337,2.7,3.1,16,0.00,,,0.00,VWS V14.01,2013-04-14 00:38:00,
2013-04-13 20:43:00,61.2,14.6,29.18,NNW,329,2.2,2.7,16,0.00,,,0.00,VWS V14.01,2013-04-14 00:43:00,
2013-04-13 20:48:00,61.2,14.6,29.21,North,0,0.0,2.7,16,0.00,,,0.00,VWS V14.01,2013-04-14 00:48:00,
2013-04-13 20:53:00,61.0,14.5,29.21,NNW,327,0.0,2.7,16,0.00,,,0.00,VWS V14.01,2013-04-14 00:53:00,
2013-04-13 20:58:00,60.8,14.4,29.21,North,11,0.0,0.0,16,0.00,,,0.00,VWS V14.01,2013-04-14 00:58:00,
2013-04-13 21:03:00,60.8,14.4,29.21,North,353,0.0,0.0,16,0.00,,,0.00,VWS V14.01,2013-04-14 01:03:00,
2013-04-13 21:08:00,60.4,15.4,29.21,North,353,0.0,0.0,17,0.00,,,0.00,VWS V14.01,2013-04-14 01:08:00,
2013-04-13 21:13:00,60.1,15.1,29.21,North,357,0.0,0.0,17,0.00,,,0.00,VWS V14.01,2013-04-14 01:13:00,
2013-04-13 21:18:00,59.9,15.0,29.21,NNW,341,0.0,3.6,17,0.00,,,0.00,VWS V14.01,2013-04-14 01:18:00,
2013-04-13 21:23:00,59.7,14.9,29.21,North,0,2.7,2.7,17,0.00,,,0.00,VWS V14.01,2013-04-14 01:23:00,
2013-04-13 21:28:00,59.5,14.7,29.21,North,7,0.0,0.0,17,0.00,,,0.00,VWS V14.01,2013-04-14 01:28:00,
2013-04-13 21:33:00,59.5,14.7,29.21,NW,313,0.0,2.2,17,0.00,,,0.00,VWS V14.01,2013-04-14 01:33:00,
2013-04-13 21:38:00,59.5,14.7,29.21,North,4,0.0,0.0,17,0.00,,,0.00,VWS V14.01,2013-04-14 01:38:00,
2013-04-13 21:43:00,59.4,14.6,29.21,North,357,0.0,0.0,17,0.00,,,0.00,VWS V14.01,2013-04-14 01:43:00,
2013-04-13 21:48:00,59.2,14.4,29.21,North,6,0.0,0.0,17,0.00,,,0.00,VWS V14.01,2013-04-14 01:48:00,
2013-04-13 21:53:00,59.0,14.3,29.21,North,353,0.0,0.0,17,0.00,,,0.00,VWS V14.01,2013-04-14 01:53:00,
2013-04-13 21:58:00,59.0,14.3,29.21,North,0,0.0,0.0,17,0.00,,,0.00,VWS V14.01,2013-04-14 01:58:00,
2013-04-13 22:03:00,58.8,14.1,29.23,North,357,0.0,0.0,17,0.00,,,0.00,VWS V14.01,2013-04-14 02:03:00,
2013-04-13 22:08:00,58.5,13.8,29.23,North,9,0.0,0.0,17,0.00,,,0.00,VWS V14.01,2013-04-14 02:08:00,
2013-04-13 22:14:00,58.3,13.7,29.23,North,0,0.0,0.0,17,0.00,,,0.00,VWS V14.01,2013-04-14 02:14:00,
2013-04-13 22:19:00,58.3,13.7,29.23,NW,322,2.7,2.7,17,0.00,,,0.00,VWS V14.01,2013-04-14 02:19:00,
2013-04-13 22:23:00,58.3,13.7,29.23,North,1,0.0,0.0,17,0.00,,,0.00,VWS V14.01,2013-04-14 02:23:00,
2013-04-13 22:28:00,58.1,13.5,29.23,NNE,23,0.0,0.0,17,0.00,,,0.00,VWS V14.01,2013-04-14 02:28:00,
2013-04-13 22:34:00,57.9,13.4,29.23,NNW,339,0.0,3.1,17,0.00,,,0.00,VWS V14.01,2013-04-14 02:34:00,
2013-04-13 22:39:00,57.7,13.2,29.23,North,357,0.0,0.0,17,0.00,,,0.00,VWS V14.01,2013-04-14 02:39:00,
2013-04-13 22:44:00,57.6,13.1,29.23,NNE,22,0.0,0.0,17,0.00,,,0.00,VWS V14.01,2013-04-14 02:44:00,
2013-04-13 22:49:00,57.2,12.8,29.23,North,5,0.0,0.0,17,0.00,,,0.00,VWS V14.01,2013-04-14 02:49:00,
2013-04-13 22:54:00,57.2,12.8,29.23,NNW,339,0.0,0.0,17,0.00,,,0.00,VWS V14.01,2013-04-14 02:54:00,
2013-04-13 22:59:00,57.0,12.7,29.23,North,350,0.0,0.0,17,0.00,,,0.00,VWS V14.01,2013-04-14 02:59:00,
2013-04-13 23:04:00,56.8,12.5,29.23,NNW,342,0.0,0.0,17,0.00,,,0.00,VWS V14.01,2013-04-14 03:04:00,
2013-04-13 23:09:00,56.7,12.4,29.23,NW,325,2.7,2.7,17,0.00,,,0.00,VWS V14.01,2013-04-14 03:09:00,
2013-04-13 23:14:00,56.5,12.2,29.23,NNW,333,0.0,0.0,17,0.00,,,0.00,VWS V14.01,2013-04-14 03:14:00,
2013-04-13 23:19:00,56.3,12.1,29.26,NW,317,2.7,2.7,17,0.00,,,0.00,VWS V14.01,2013-04-14 03:19:00,
2013-04-13 23:24:00,55.9,11.8,29.26,NNW,343,0.0,0.0,17,0.00,,,0.00,VWS V14.01,2013-04-14 03:24:00,
2013-04-13 23:29:00,55.6,11.5,29.26,NNW,348,0.0,0.0,17,0.00,,,0.00,VWS V14.01,2013-04-14 03:29:00,
2013-04-13 23:34:00,55.4,11.3,29.26,NNW,348,0.0,0.0,17,0.00,,,0.00,VWS V14.01,2013-04-14 03:34:00,
2013-04-13 23:39:00,55.2,12.5,29.26,NNW,348,0.0,0.0,18,0.00,,,0.00,VWS V14.01,2013-04-14 03:39:00,
2013-04-13 23:44:00,55.0,12.3,29.26,NNW,348,0.0,0.0,18,0.00,,,0.00,VWS V14.01,2013-04-14 03:44:00,
2013-04-13 23:49:00,54.9,12.2,29.26,WNW,298,0.0,0.0,18,0.00,,,0.00,VWS V14.01,2013-04-14 03:49:00,
2013-04-13 23:54:00,54.3,11.7,29.26,WNW,298,0.0,0.0,18,0.00,,,0.00,VWS V14.01,2013-04-14 03:54:00,
2013-04-13 23:59:00,53.8,11.3,29.26,WNW,298,0.0,0.0,18,0.00,,,0.00,VWS V14.01,2013-04-14 03:59:00,